createdAt,value
2023-01-29T00:00:21.324Z,-1.47
2023-01-29T00:02:48.127Z,-1.55
2023-01-29T00:05:27.076Z,-1.49
2023-01-29T00:07:56.611Z,-1.47
2023-01-29T00:10:24.839Z,-1.52
2023-01-29T00:12:51.913Z,-1.55
2023-01-29T00:15:18.855Z,-1.70
2023-01-29T00:17:45.517Z,-1.62
2023-01-29T00:20:12.689Z,-1.73
2023-01-29T00:22:39.301Z,-1.83
2023-01-29T00:25:06.528Z,-1.89
2023-01-29T00:27:33.249Z,-1.89
2023-01-29T00:30:09.722Z,-2.13
2023-01-29T00:32:36.428Z,-2.12
2023-01-29T00:35:03.659Z,-2.10
2023-01-29T00:37:30.709Z,-2.12
2023-01-29T00:39:57.823Z,-2.26
2023-01-29T00:42:43.615Z,-2.31
2023-01-29T00:45:11.915Z,-2.42
2023-01-29T00:47:38.643Z,-2.39
2023-01-29T00:50:08.651Z,-2.39
2023-01-29T00:52:36.610Z,-2.45
2023-01-29T00:55:05.113Z,-2.51
2023-01-29T00:57:33.944Z,-2.55
2023-01-29T01:00:00.825Z,-2.55
2023-01-29T01:02:46.850Z,-2.53
2023-01-29T01:05:18.321Z,-2.57
2023-01-29T01:07:51.903Z,-2.56
2023-01-29T01:10:26.393Z,-2.58
2023-01-29T01:13:02.613Z,-2.56
2023-01-29T01:15:38.175Z,-2.55
2023-01-29T01:18:06.058Z,-2.62
2023-01-29T01:20:35.332Z,-2.58
2023-01-29T01:23:02.844Z,-2.61
2023-01-29T01:25:29.484Z,-2.60
2023-01-29T01:27:57.765Z,-2.61
2023-01-29T01:30:25.424Z,-2.62
2023-01-29T01:32:52.382Z,-2.72
2023-01-29T01:35:19.254Z,-2.77
2023-01-29T01:37:45.945Z,-2.79
2023-01-29T01:40:18.710Z,-2.75
2023-01-29T01:42:52.282Z,-2.84
2023-01-29T01:45:29.789Z,-2.85
2023-01-29T01:48:02.991Z,-2.85
2023-01-29T01:50:40.677Z,-2.81
2023-01-29T01:53:11.111Z,-2.87
2023-01-29T01:55:44.296Z,-2.84
2023-01-29T01:58:19.221Z,-2.87
2023-01-29T02:00:45.766Z,-2.85
2023-01-29T02:03:31.927Z,-2.76
2023-01-29T02:06:19.170Z,-2.70
2023-01-29T02:09:23.980Z,-2.78
2023-01-29T02:11:50.902Z,-2.80
2023-01-29T02:14:17.742Z,-2.76
2023-01-29T02:16:45.276Z,-2.80
2023-01-29T02:20:01.286Z,-2.78
2023-01-29T02:22:49.546Z,-2.85
2023-01-29T02:25:44.656Z,-2.85
2023-01-29T02:28:30.127Z,-2.72
2023-01-29T02:31:06.442Z,-2.72
2023-01-29T02:33:54.577Z,-2.74
2023-01-29T02:36:33.498Z,-2.79
2023-01-29T02:39:05.445Z,-2.83
2023-01-29T02:41:46.063Z,-2.83
2023-01-29T02:44:32.524Z,-2.86
2023-01-29T02:47:18.986Z,-2.93
2023-01-29T02:50:24.339Z,-3.09
2023-01-29T02:53:09.518Z,-3.08
2023-01-29T02:55:46.778Z,-3.27
2023-01-29T02:58:38.610Z,-3.36
2023-01-29T03:01:13.514Z,-3.39
2023-01-29T03:03:51.699Z,-3.49
2023-01-29T03:06:26.297Z,-3.47
2023-01-29T03:09:01.320Z,-3.51
2023-01-29T03:11:39.935Z,-3.50
2023-01-29T03:14:13.450Z,-3.48
2023-01-29T03:16:45.809Z,-3.38
2023-01-29T03:19:16.298Z,-3.35
2023-01-29T03:21:51.413Z,-3.32
2023-01-29T03:24:44.326Z,-3.21
2023-01-29T03:27:32.712Z,-3.23
2023-01-29T03:30:20.290Z,-3.11
2023-01-29T03:32:52.212Z,-3.16
2023-01-29T03:35:33.466Z,-3.23
2023-01-29T03:38:01.080Z,-3.04
2023-01-29T03:40:34.527Z,-3.11
2023-01-29T03:43:13.464Z,-3.12
2023-01-29T03:46:04.996Z,-3.12
2023-01-29T03:48:38.064Z,-3.22
2023-01-29T03:51:21.254Z,-3.26
2023-01-29T03:54:28.926Z,-3.34
2023-01-29T03:57:06.183Z,-3.43
2023-01-29T03:59:53.078Z,-3.40
2023-01-29T04:03:00.486Z,-3.47
2023-01-29T04:05:33.405Z,-3.54
2023-01-29T04:08:14.663Z,-3.58
2023-01-29T04:10:45.124Z,-3.53
2023-01-29T04:13:13.852Z,-3.57
2023-01-29T04:15:48.199Z,-3.52
2023-01-29T04:18:15.299Z,-3.29
2023-01-29T04:21:01.563Z,-3.27
2023-01-29T04:23:28.750Z,-3.35
2023-01-29T04:26:08.225Z,-3.45
2023-01-29T04:28:59.352Z,-3.40
2023-01-29T04:31:32.241Z,-3.41
2023-01-29T04:34:22.837Z,-3.23
2023-01-29T04:37:10.343Z,-3.33
2023-01-29T04:39:49.621Z,-3.41
2023-01-29T04:42:31.121Z,-3.50
2023-01-29T04:45:10.019Z,-3.51
2023-01-29T04:48:05.228Z,-3.72
2023-01-29T04:50:59.226Z,-3.86
2023-01-29T04:53:33.809Z,-3.90
2023-01-29T04:56:13.493Z,-3.89
2023-01-29T04:58:56.228Z,-3.82
2023-01-29T05:01:25.895Z,-3.83
2023-01-29T05:03:54.765Z,-3.79
2023-01-29T05:06:22.866Z,-3.76
2023-01-29T05:08:51.275Z,-3.73
2023-01-29T05:11:21.778Z,-3.48
2023-01-29T05:13:49.550Z,-3.44
2023-01-29T05:16:30.106Z,-3.28
2023-01-29T05:18:56.894Z,-3.30
2023-01-29T05:21:24.570Z,-3.18
2023-01-29T05:24:17.912Z,-3.31
2023-01-29T05:27:05.742Z,-3.25
2023-01-29T05:29:32.456Z,-3.30
2023-01-29T05:31:59.381Z,-3.15
2023-01-29T05:34:26.374Z,-3.12
2023-01-29T05:36:53.774Z,-3.12
2023-01-29T05:39:20.534Z,-3.17
2023-01-29T05:41:47.559Z,-3.15
2023-01-29T05:44:14.218Z,-3.11
2023-01-29T05:46:41.032Z,-3.10
2023-01-29T05:49:07.655Z,-3.14
2023-01-29T05:51:34.444Z,-3.06
2023-01-29T05:54:01.100Z,-2.99
2023-01-29T05:56:27.771Z,-2.93
2023-01-29T05:58:55.523Z,-3.02
2023-01-29T06:01:25.479Z,-2.98
2023-01-29T06:03:52.289Z,-2.95
2023-01-29T06:06:19.049Z,-2.97
2023-01-29T06:08:46.257Z,-2.88
2023-01-29T06:11:18.219Z,-2.97
2023-01-29T06:13:45.941Z,-3.00
2023-01-29T06:16:13.929Z,-2.88
2023-01-29T06:18:41.587Z,-2.98
2023-01-29T06:21:12.009Z,-3.02
2023-01-29T06:23:39.428Z,-3.03
2023-01-29T06:26:09.311Z,-3.00
2023-01-29T06:28:35.992Z,-2.99
2023-01-29T06:31:23.771Z,-2.99
2023-01-29T06:33:51.435Z,-2.99
2023-01-29T06:36:18.112Z,-2.86
2023-01-29T06:38:44.879Z,-2.66
2023-01-29T06:41:12.959Z,-2.70
2023-01-29T06:43:39.944Z,-2.80
2023-01-29T06:46:08.584Z,-2.72
2023-01-29T06:48:35.451Z,-2.56
2023-01-29T06:51:07.144Z,-2.55
2023-01-29T06:53:35.471Z,-2.61
2023-01-29T06:56:02.179Z,-2.61
2023-01-29T06:58:28.788Z,-2.49
2023-01-29T07:01:03.712Z,-2.53
2023-01-29T07:03:30.331Z,-2.49
2023-01-29T07:05:56.966Z,-2.44
2023-01-29T07:08:23.786Z,-2.44
2023-01-29T07:10:50.536Z,-2.57
2023-01-29T07:13:17.601Z,-2.45
2023-01-29T07:15:44.742Z,-2.50
2023-01-29T07:18:14.444Z,-2.45
2023-01-29T07:20:42.404Z,-2.40
2023-01-29T07:23:12.201Z,-2.34
2023-01-29T07:25:39.647Z,-2.45
2023-01-29T07:28:06.973Z,-2.39
2023-01-29T07:30:33.876Z,-2.37
2023-01-29T07:33:07.430Z,-2.31
2023-01-29T07:35:39.228Z,-2.14
2023-01-29T07:38:06.847Z,-2.16
2023-01-29T07:40:33.711Z,-2.16
2023-01-29T07:43:06.433Z,-2.12
2023-01-29T07:45:35.924Z,-2.15
2023-01-29T07:48:05.150Z,-2.10
2023-01-29T07:50:33.774Z,-2.02
2023-01-29T07:53:00.691Z,-1.97
2023-01-29T07:55:27.561Z,-1.97
2023-01-29T07:57:57.520Z,-2.00
2023-01-29T08:00:38.831Z,-1.93
2023-01-29T08:03:25.988Z,-1.89
2023-01-29T08:06:10.273Z,-1.97
2023-01-29T08:08:40.733Z,-1.92
2023-01-29T08:11:07.501Z,-1.83
2023-01-29T08:13:34.332Z,-1.80
2023-01-29T08:16:03.009Z,-1.78
2023-01-29T08:18:32.532Z,-1.76
2023-01-29T08:21:02.699Z,-1.70
2023-01-29T08:23:30.273Z,-1.73
2023-01-29T08:25:57.047Z,-1.68
2023-01-29T08:28:23.843Z,-1.51
2023-01-29T08:30:50.778Z,-1.60
2023-01-29T08:33:19.486Z,-1.54
2023-01-29T08:35:51.832Z,-1.55
2023-01-29T08:38:18.677Z,-1.55
2023-01-29T08:40:45.486Z,-1.50
2023-01-29T08:43:13.776Z,-1.59
2023-01-29T08:45:42.477Z,-1.56
2023-01-29T08:48:10.115Z,-1.56
2023-01-29T08:50:37.484Z,-1.68
2023-01-29T08:53:07.892Z,-1.66
2023-01-29T08:55:39.587Z,-1.63
2023-01-29T08:58:08.864Z,-1.60
2023-01-29T09:00:35.963Z,-1.57
2023-01-29T09:03:03.933Z,-1.65
2023-01-29T09:05:31.326Z,-1.74
2023-01-29T09:07:58.633Z,-1.70
2023-01-29T09:10:25.580Z,-1.66
2023-01-29T09:12:52.325Z,-1.70
2023-01-29T09:15:19.490Z,-1.64
2023-01-29T09:17:46.777Z,-1.64
2023-01-29T09:20:13.404Z,-1.54
2023-01-29T09:22:40.068Z,-1.55
2023-01-29T09:25:09.012Z,-1.49
2023-01-29T09:27:35.683Z,-1.41
2023-01-29T09:30:02.618Z,-1.35
2023-01-29T09:32:52.629Z,-1.23
2023-01-29T09:35:17.787Z,-1.24
2023-01-29T09:37:48.115Z,-1.27
2023-01-29T09:40:25.982Z,-1.26
2023-01-29T09:43:06.783Z,-1.14
2023-01-29T09:45:34.271Z,-1.09
2023-01-29T09:48:03.568Z,-0.94
2023-01-29T09:50:38.475Z,-1.05
2023-01-29T09:53:30.457Z,-1.28
2023-01-29T09:56:13.068Z,-1.31
2023-01-29T09:58:42.552Z,-1.23
2023-01-29T10:01:18.320Z,-1.31
2023-01-29T10:04:03.666Z,-1.31
2023-01-29T10:06:48.690Z,-1.31
2023-01-29T10:09:27.212Z,-1.17
2023-01-29T10:12:13.647Z,-1.04
2023-01-29T10:15:05.302Z,-0.96
2023-01-29T10:17:53.792Z,-1.29
2023-01-29T10:20:53.949Z,-1.17
2023-01-29T10:23:23.537Z,-1.03
2023-01-29T10:25:50.236Z,-0.94
2023-01-29T10:28:27.758Z,-1.00
2023-01-29T10:31:43.759Z,-0.98
2023-01-29T10:34:26.086Z,-0.66
2023-01-29T10:36:55.091Z,-0.78
2023-01-29T10:39:23.795Z,-0.87
2023-01-29T10:42:02.428Z,-0.56
2023-01-29T10:44:56.990Z,-0.57
2023-01-29T10:47:57.780Z,-0.60
2023-01-29T10:50:52.358Z,-0.68
2023-01-29T10:54:00.944Z,-0.47
2023-01-29T10:56:39.562Z,-0.31
2023-01-29T10:59:29.077Z,-0.28
2023-01-29T11:02:00.455Z,-0.35
2023-01-29T11:04:28.622Z,-0.59
2023-01-29T11:06:55.327Z,-0.31
2023-01-29T11:12:20.206Z,0.10
2023-01-29T11:14:53.514Z,0.26
2023-01-29T11:17:23.063Z,0.49
2023-01-29T11:19:52.012Z,-0.12
2023-01-29T11:22:26.988Z,-0.04
2023-01-29T11:25:16.177Z,0.09
2023-01-29T11:27:57.095Z,0.24
2023-01-29T11:30:27.266Z,-0.11
2023-01-29T11:33:19.559Z,0.43
2023-01-29T11:35:46.660Z,0.60
2023-01-29T11:38:17.075Z,0.58
2023-01-29T11:40:44.824Z,0.38
2023-01-29T11:43:13.931Z,0.78
2023-01-29T11:45:40.942Z,0.61
2023-01-29T11:48:15.761Z,0.02
2023-01-29T11:50:43.144Z,0.60
2023-01-29T11:53:27.039Z,0.89
2023-01-29T11:55:56.017Z,0.68
2023-01-29T11:58:32.276Z,1.09
2023-01-29T12:01:00.069Z,0.91
2023-01-29T12:03:56.310Z,0.64
2023-01-29T12:06:36.451Z,0.49
2023-01-29T12:09:11.698Z,0.34
2023-01-29T12:11:38.543Z,0.19
2023-01-29T12:14:22.205Z,0.60
2023-01-29T12:17:01.404Z,0.85
2023-01-29T12:19:42.917Z,1.07
2023-01-29T12:22:12.470Z,1.00
2023-01-29T12:24:52.985Z,0.78
2023-01-29T12:27:27.120Z,0.96
2023-01-29T12:30:02.977Z,1.30
2023-01-29T12:32:43.315Z,1.18
2023-01-29T12:35:28.454Z,0.89
2023-01-29T12:38:13.757Z,0.60
2023-01-29T12:40:48.555Z,0.80
2023-01-29T12:43:24.050Z,0.89
2023-01-29T12:45:54.030Z,0.62
2023-01-29T12:48:27.900Z,0.74
2023-01-29T12:50:57.680Z,0.39
2023-01-29T12:53:37.647Z,0.59
2023-01-29T12:56:24.273Z,0.77
2023-01-29T12:58:54.093Z,0.86
2023-01-29T13:01:31.272Z,0.62
2023-01-29T13:04:00.909Z,0.68
2023-01-29T13:06:41.721Z,0.57
2023-01-29T13:09:24.832Z,0.82
2023-01-29T13:12:09.349Z,0.72
2023-01-29T13:14:54.522Z,0.93
2023-01-29T13:17:33.176Z,1.21
2023-01-29T13:20:10.607Z,1.14
2023-01-29T13:22:39.795Z,0.42
2023-01-29T13:25:09.830Z,0.55
2023-01-29T13:27:37.394Z,0.92
2023-01-29T13:30:04.981Z,0.60
2023-01-29T13:32:34.506Z,0.91
2023-01-29T13:35:12.698Z,0.97
2023-01-29T13:37:47.989Z,0.63
2023-01-29T13:40:48.726Z,0.90
2023-01-29T13:43:21.626Z,0.88
2023-01-29T13:45:51.582Z,0.98
2023-01-29T13:48:42.419Z,1.06
2023-01-29T13:51:20.273Z,1.13
2023-01-29T13:54:05.508Z,1.38
2023-01-29T13:56:35.236Z,1.49
2023-01-29T13:59:06.226Z,1.50
2023-01-29T14:01:48.253Z,1.27
2023-01-29T14:04:28.321Z,1.08
2023-01-29T14:06:56.527Z,1.25
2023-01-29T14:09:55.410Z,1.17
2023-01-29T14:12:22.083Z,1.08
2023-01-29T14:14:48.802Z,0.99
2023-01-29T14:17:17.469Z,1.22
2023-01-29T14:19:52.259Z,0.95
2023-01-29T14:22:22.197Z,1.43
2023-01-29T14:24:53.774Z,1.16
2023-01-29T14:27:22.889Z,0.99
2023-01-29T14:29:51.819Z,1.27
2023-01-29T14:32:21.534Z,1.15
2023-01-29T14:34:50.545Z,0.99
2023-01-29T14:37:17.209Z,1.03
2023-01-29T14:39:53.152Z,1.01
2023-01-29T14:42:27.077Z,0.98
2023-01-29T14:45:21.733Z,0.67
2023-01-29T14:47:48.272Z,0.76
2023-01-29T14:50:31.826Z,0.91
2023-01-29T14:53:23.299Z,0.63
2023-01-29T14:55:55.829Z,0.66
2023-01-29T14:58:46.539Z,0.68
2023-01-29T15:01:53.911Z,0.57
2023-01-29T15:04:50.970Z,0.80
2023-01-29T15:07:20.369Z,0.79
2023-01-29T15:09:55.634Z,0.92
2023-01-29T15:12:46.440Z,0.71
2023-01-29T15:15:54.208Z,0.68
2023-01-29T15:18:31.453Z,0.62
2023-01-29T15:21:12.012Z,0.51
2023-01-29T15:23:40.851Z,0.35
2023-01-29T15:26:11.684Z,0.45
2023-01-29T15:28:39.847Z,0.42
2023-01-29T15:31:12.133Z,0.56
2023-01-29T15:33:42.882Z,0.39
2023-01-29T15:36:19.962Z,0.37
2023-01-29T15:38:46.777Z,0.56
2023-01-29T15:41:21.547Z,0.21
2023-01-29T15:43:51.743Z,0.23
2023-01-29T15:46:34.063Z,0.40
2023-01-29T15:49:06.544Z,0.36
2023-01-29T15:51:33.907Z,0.21
2023-01-29T15:54:03.705Z,0.27
2023-01-29T15:56:36.131Z,0.22
2023-01-29T15:59:09.803Z,0.31
2023-01-29T16:01:36.791Z,0.08
2023-01-29T16:04:04.177Z,0.07
2023-01-29T16:06:37.926Z,0.17
2023-01-29T16:09:05.268Z,0.27
2023-01-29T16:11:33.232Z,0.15
2023-01-29T16:14:01.084Z,0.09
2023-01-29T16:16:28.396Z,-0.01
2023-01-29T16:19:00.529Z,-0.08
2023-01-29T16:21:33.434Z,-0.00
2023-01-29T16:24:07.710Z,-0.22
2023-01-29T16:26:38.018Z,-0.29
2023-01-29T16:29:10.138Z,-0.29
2023-01-29T16:31:37.997Z,-0.26
2023-01-29T16:34:35.091Z,-0.31
2023-01-29T16:37:04.444Z,-0.32
2023-01-29T16:39:43.639Z,-0.32
2023-01-29T16:42:10.848Z,-0.34
2023-01-29T16:44:46.777Z,-0.43
2023-01-29T16:47:20.496Z,-0.38
2023-01-29T16:49:55.271Z,-0.44
2023-01-29T16:52:29.241Z,-0.43
2023-01-29T16:55:20.988Z,-0.49
2023-01-29T16:57:55.511Z,-0.58
2023-01-29T17:00:29.000Z,-0.52
2023-01-29T17:03:06.764Z,-0.53
2023-01-29T17:05:38.182Z,-0.56
2023-01-29T17:08:06.341Z,-0.66
2023-01-29T17:10:34.343Z,-0.59
2023-01-29T17:13:06.398Z,-0.61
2023-01-29T17:15:45.655Z,-0.63
2023-01-29T17:18:18.463Z,-0.68
2023-01-29T17:20:45.153Z,-0.73
2023-01-29T17:23:11.891Z,-0.73
2023-01-29T17:25:38.761Z,-0.84
2023-01-29T17:28:05.824Z,-0.83
2023-01-29T17:30:35.296Z,-0.86
2023-01-29T17:33:02.937Z,-0.82
2023-01-29T17:35:29.844Z,-0.88
2023-01-29T17:37:56.477Z,-0.91
2023-01-29T17:40:34.489Z,-0.86
2023-01-29T17:43:01.095Z,-0.86
2023-01-29T17:45:27.878Z,-1.09
2023-01-29T17:47:54.746Z,-1.03
2023-01-29T17:50:24.968Z,-1.04
2023-01-29T17:52:51.790Z,-1.04
2023-01-29T17:55:18.798Z,-1.13
2023-01-29T17:57:45.594Z,-1.03
2023-01-29T18:00:21.023Z,-0.97
2023-01-29T18:02:47.688Z,-1.06
2023-01-29T18:05:16.193Z,-1.08
2023-01-29T18:07:45.361Z,-1.03
2023-01-29T18:10:16.192Z,-1.00
2023-01-29T18:12:43.084Z,-1.00
2023-01-29T18:15:10.478Z,-1.04
2023-01-29T18:17:37.921Z,-1.00
2023-01-29T18:20:18.163Z,-0.91
2023-01-29T18:22:45.168Z,-0.92
2023-01-29T18:25:12.418Z,-0.99
2023-01-29T18:27:39.564Z,-0.98
2023-01-29T18:30:06.787Z,-1.02
2023-01-29T18:32:33.560Z,-1.08
2023-01-29T18:35:00.293Z,-1.10
2023-01-29T18:37:26.954Z,-1.12
2023-01-29T18:39:53.930Z,-1.19
2023-01-29T18:42:23.432Z,-1.20
2023-01-29T18:44:50.184Z,-1.16
2023-01-29T18:47:17.239Z,-1.19
2023-01-29T18:49:44.087Z,-1.15
2023-01-29T18:52:10.908Z,-1.21
2023-01-29T18:54:37.887Z,-1.24
2023-01-29T18:57:14.607Z,-1.24
2023-01-29T18:59:51.476Z,-1.27
2023-01-29T19:02:19.492Z,-1.28
2023-01-29T19:04:47.126Z,-1.21
2023-01-29T19:07:14.910Z,-1.21
2023-01-29T19:09:43.338Z,-1.18
2023-01-29T19:12:10.105Z,-1.06
2023-01-29T19:14:36.820Z,-1.05
2023-01-29T19:17:04.800Z,-1.09
2023-01-29T19:19:31.690Z,-1.12
2023-01-29T19:21:58.259Z,-1.09
2023-01-29T19:24:25.152Z,-1.09
2023-01-29T19:26:51.894Z,-1.07
2023-01-29T19:29:18.847Z,-1.06
2023-01-29T19:31:46.106Z,-1.07
2023-01-29T19:34:12.961Z,-1.02
2023-01-29T19:36:41.151Z,-1.05
2023-01-29T19:39:07.820Z,-1.06
2023-01-29T19:41:35.098Z,-1.06
2023-01-29T19:44:01.829Z,-1.08
2023-01-29T19:46:30.308Z,-1.05
2023-01-29T19:48:58.977Z,-1.00
2023-01-29T19:51:28.166Z,-1.00
2023-01-29T19:53:55.821Z,-0.94
2023-01-29T19:56:22.466Z,-1.00
2023-01-29T19:58:49.319Z,-0.97
2023-01-29T20:01:18.673Z,-0.96
2023-01-29T20:03:46.671Z,-0.94
2023-01-29T20:06:15.693Z,-0.92
2023-01-29T20:08:42.848Z,-0.88
2023-01-29T20:11:11.965Z,-0.86
2023-01-29T20:13:38.637Z,-0.89
2023-01-29T20:16:05.782Z,-0.93
2023-01-29T20:18:32.502Z,-0.85
2023-01-29T20:20:59.702Z,-0.85
2023-01-29T20:23:37.315Z,-0.93
2023-01-29T20:26:08.268Z,-0.84
2023-01-29T20:28:35.333Z,-0.78
2023-01-29T20:31:02.094Z,-0.80
2023-01-29T20:33:29.224Z,-0.87
2023-01-29T20:36:01.202Z,-0.82
2023-01-29T20:38:31.854Z,-0.80
2023-01-29T20:41:09.738Z,-0.75
2023-01-29T20:43:36.842Z,-0.82
2023-01-29T20:46:04.124Z,-0.77
2023-01-29T20:48:31.889Z,-0.78
2023-01-29T20:51:09.891Z,-0.76
2023-01-29T20:53:37.518Z,-0.79
2023-01-29T20:56:04.923Z,-0.73
2023-01-29T20:58:31.997Z,-0.68
2023-01-29T21:00:58.681Z,-0.69
2023-01-29T21:03:25.519Z,-0.71
2023-01-29T21:05:52.429Z,-0.73
2023-01-29T21:08:19.008Z,-0.67
2023-01-29T21:10:45.854Z,-0.63
2023-01-29T21:13:12.846Z,-0.64
2023-01-29T21:15:41.525Z,-0.58
2023-01-29T21:18:08.187Z,-0.56
2023-01-29T21:20:34.875Z,-0.59
2023-01-29T21:23:05.287Z,-0.60
2023-01-29T21:25:33.304Z,-0.58
2023-01-29T21:28:00.001Z,-0.51
2023-01-29T21:30:27.161Z,-0.47
2023-01-29T21:32:53.993Z,-0.45
2023-01-29T21:35:20.669Z,-0.45
2023-01-29T21:37:47.361Z,-0.43
2023-01-29T21:40:14.026Z,-0.41
2023-01-29T21:42:59.388Z,-0.40
2023-01-29T21:45:26.115Z,-0.37
2023-01-29T21:47:52.842Z,-0.34
2023-01-29T21:50:19.988Z,-0.29
2023-01-29T21:52:46.901Z,-0.28
2023-01-29T21:55:13.613Z,-0.29
2023-01-29T21:57:40.436Z,-0.23
2023-01-29T22:00:07.715Z,-0.25
2023-01-29T22:02:34.373Z,-0.21
2023-01-29T22:05:17.733Z,-0.21
2023-01-29T22:07:45.135Z,-0.18
2023-01-29T22:10:12.650Z,-0.16
2023-01-29T22:12:40.021Z,-0.16
2023-01-29T22:15:07.838Z,-0.16
2023-01-29T22:17:35.426Z,-0.14
2023-01-29T22:20:02.660Z,-0.17
2023-01-29T22:22:29.297Z,-0.13
2023-01-29T22:24:57.720Z,-0.10
2023-01-29T22:27:24.678Z,-0.09
2023-01-29T22:29:51.582Z,-0.07
2023-01-29T22:32:18.213Z,-0.06
2023-01-29T22:34:44.995Z,-0.06
2023-01-29T22:37:11.793Z,-0.07
2023-01-29T22:39:38.400Z,-0.06
2023-01-29T22:42:05.206Z,-0.07
2023-01-29T22:44:31.840Z,-0.05
2023-01-29T22:46:58.598Z,-0.02
2023-01-29T22:49:25.860Z,-0.05
2023-01-29T22:52:10.178Z,-0.03
2023-01-29T22:54:38.732Z,-0.02
2023-01-29T22:57:06.166Z,0.01
2023-01-29T22:59:33.432Z,0.01
2023-01-29T23:02:00.103Z,0.03
2023-01-29T23:04:26.933Z,0.01
2023-01-29T23:06:53.757Z,-0.00
2023-01-29T23:09:20.441Z,0.03
2023-01-29T23:11:47.100Z,0.02
2023-01-29T23:14:13.814Z,0.01
2023-01-29T23:16:40.568Z,0.02
2023-01-29T23:19:07.327Z,0.02
2023-01-29T23:21:34.103Z,0.05
2023-01-29T23:24:01.441Z,0.09
2023-01-29T23:26:47.775Z,0.08
2023-01-29T23:29:14.788Z,0.09
2023-01-29T23:31:41.550Z,0.10
2023-01-29T23:34:08.519Z,0.15
2023-01-29T23:36:36.433Z,0.19
2023-01-29T23:39:03.135Z,0.25
2023-01-29T23:41:29.864Z,0.24
2023-01-29T23:43:56.506Z,0.23
2023-01-29T23:46:23.243Z,0.26
2023-01-29T23:48:50.128Z,0.23
2023-01-29T23:51:17.257Z,0.21
2023-01-29T23:53:46.391Z,0.29
2023-01-29T23:56:13.289Z,0.34
2023-01-29T23:58:40.050Z,0.31
